sensor_id;sensor_type;location;lat;lon;timestamp;P1;durP1;ratioP1;P2;durP2;ratioP2
34876;SDS011;21086;44.780;17.194;2022-12-20T00:01:26;44.78;;;24.38;;
34876;SDS011;21086;44.780;17.194;2022-12-20T00:03:56;46.65;;;22.92;;
34876;SDS011;21086;44.780;17.194;2022-12-20T00:06:24;46.03;;;23.67;;
34876;SDS011;21086;44.780;17.194;2022-12-20T00:08:52;49.45;;;24.67;;
34876;SDS011;21086;44.780;17.194;2022-12-20T00:11:21;45.83;;;22.60;;
34876;SDS011;21086;44.780;17.194;2022-12-20T00:13:48;44.92;;;22.70;;
34876;SDS011;21086;44.780;17.194;2022-12-20T00:16:19;47.67;;;23.05;;
34876;SDS011;21086;44.780;17.194;2022-12-20T00:18:50;47.75;;;24.70;;
34876;SDS011;21086;44.780;17.194;2022-12-20T00:21:18;48.63;;;23.13;;
34876;SDS011;21086;44.780;17.194;2022-12-20T00:23:46;38.75;;;20.48;;
34876;SDS011;21086;44.780;17.194;2022-12-20T00:26:14;39.58;;;19.75;;
34876;SDS011;21086;44.780;17.194;2022-12-20T00:28:42;40.22;;;19.70;;
34876;SDS011;21086;44.780;17.194;2022-12-20T00:31:11;34.95;;;17.90;;
34876;SDS011;21086;44.780;17.194;2022-12-20T00:33:43;33.10;;;17.02;;
34876;SDS011;21086;44.780;17.194;2022-12-20T00:36:11;37.83;;;19.20;;
34876;SDS011;21086;44.780;17.194;2022-12-20T00:38:39;30.40;;;17.83;;
34876;SDS011;21086;44.780;17.194;2022-12-20T00:41:07;37.85;;;19.67;;
34876;SDS011;21086;44.780;17.194;2022-12-20T00:43:36;37.75;;;20.02;;
34876;SDS011;21086;44.780;17.194;2022-12-20T00:46:04;35.17;;;16.90;;
34876;SDS011;21086;44.780;17.194;2022-12-20T00:48:32;39.33;;;19.17;;
34876;SDS011;21086;44.780;17.194;2022-12-20T00:51:01;35.47;;;19.02;;
34876;SDS011;21086;44.780;17.194;2022-12-20T00:53:30;39.60;;;19.70;;
34876;SDS011;21086;44.780;17.194;2022-12-20T00:55:58;32.70;;;17.58;;
34876;SDS011;21086;44.780;17.194;2022-12-20T00:58:25;36.67;;;18.42;;
34876;SDS011;21086;44.780;17.194;2022-12-20T01:00:54;30.67;;;16.48;;
34876;SDS011;21086;44.780;17.194;2022-12-20T01:03:23;28.38;;;15.73;;
34876;SDS011;21086;44.780;17.194;2022-12-20T01:05:56;38.22;;;18.77;;
34876;SDS011;21086;44.780;17.194;2022-12-20T01:08:25;36.28;;;18.02;;
34876;SDS011;21086;44.780;17.194;2022-12-20T01:11:18;35.60;;;17.58;;
34876;SDS011;21086;44.780;17.194;2022-12-20T01:13:54;37.15;;;17.63;;
34876;SDS011;21086;44.780;17.194;2022-12-20T01:16:24;39.70;;;18.98;;
34876;SDS011;21086;44.780;17.194;2022-12-20T01:18:56;33.33;;;16.15;;
34876;SDS011;21086;44.780;17.194;2022-12-20T01:21:24;36.00;;;18.80;;
34876;SDS011;21086;44.780;17.194;2022-12-20T01:23:52;31.40;;;16.70;;
34876;SDS011;21086;44.780;17.194;2022-12-20T01:26:21;28.55;;;14.45;;
34876;SDS011;21086;44.780;17.194;2022-12-20T01:28:54;27.90;;;14.98;;
34876;SDS011;21086;44.780;17.194;2022-12-20T01:31:22;31.45;;;15.57;;
34876;SDS011;21086;44.780;17.194;2022-12-20T01:33:50;38.50;;;16.98;;
34876;SDS011;21086;44.780;17.194;2022-12-20T01:36:19;31.67;;;15.95;;
34876;SDS011;21086;44.780;17.194;2022-12-20T01:39:10;25.15;;;14.10;;
34876;SDS011;21086;44.780;17.194;2022-12-20T01:41:39;29.67;;;16.73;;
34876;SDS011;21086;44.780;17.194;2022-12-20T01:46:44;33.40;;;16.45;;
34876;SDS011;21086;44.780;17.194;2022-12-20T01:51:49;29.85;;;16.65;;
34876;SDS011;21086;44.780;17.194;2022-12-20T01:54:21;28.60;;;16.02;;
34876;SDS011;21086;44.780;17.194;2022-12-20T01:56:58;31.95;;;15.73;;
34876;SDS011;21086;44.780;17.194;2022-12-20T01:59:29;28.42;;;15.25;;
34876;SDS011;21086;44.780;17.194;2022-12-20T02:02:00;27.23;;;14.10;;
34876;SDS011;21086;44.780;17.194;2022-12-20T02:04:31;26.35;;;14.13;;
34876;SDS011;21086;44.780;17.194;2022-12-20T02:06:58;29.27;;;15.35;;
34876;SDS011;21086;44.780;17.194;2022-12-20T02:09:26;30.88;;;15.05;;
34876;SDS011;21086;44.780;17.194;2022-12-20T02:14:34;27.45;;;14.18;;
34876;SDS011;21086;44.780;17.194;2022-12-20T02:20:14;29.90;;;15.20;;
34876;SDS011;21086;44.780;17.194;2022-12-20T02:23:01;21.77;;;12.52;;
34876;SDS011;21086;44.780;17.194;2022-12-20T02:25:52;25.48;;;14.32;;
34876;SDS011;21086;44.780;17.194;2022-12-20T02:31:16;31.75;;;15.80;;
34876;SDS011;21086;44.780;17.194;2022-12-20T02:33:46;32.42;;;17.33;;
34876;SDS011;21086;44.780;17.194;2022-12-20T02:36:17;31.85;;;18.17;;
34876;SDS011;21086;44.780;17.194;2022-12-20T02:38:45;31.88;;;17.45;;
34876;SDS011;21086;44.780;17.194;2022-12-20T02:44:23;31.55;;;16.33;;
34876;SDS011;21086;44.780;17.194;2022-12-20T02:47:15;32.33;;;17.23;;
34876;SDS011;21086;44.780;17.194;2022-12-20T02:49:46;34.65;;;16.55;;
34876;SDS011;21086;44.780;17.194;2022-12-20T02:52:15;35.90;;;19.55;;
34876;SDS011;21086;44.780;17.194;2022-12-20T02:54:46;32.85;;;17.80;;
34876;SDS011;21086;44.780;17.194;2022-12-20T02:57:18;39.63;;;20.58;;
34876;SDS011;21086;44.780;17.194;2022-12-20T03:00:04;38.05;;;19.60;;
34876;SDS011;21086;44.780;17.194;2022-12-20T03:02:37;34.10;;;19.10;;
34876;SDS011;21086;44.780;17.194;2022-12-20T03:05:24;31.67;;;17.58;;
34876;SDS011;21086;44.780;17.194;2022-12-20T03:07:54;31.10;;;17.83;;
34876;SDS011;21086;44.780;17.194;2022-12-20T03:10:21;31.00;;;16.05;;
34876;SDS011;21086;44.780;17.194;2022-12-20T03:12:48;32.08;;;17.67;;
34876;SDS011;21086;44.780;17.194;2022-12-20T03:15:15;28.98;;;15.90;;
34876;SDS011;21086;44.780;17.194;2022-12-20T03:17:42;37.03;;;17.58;;
34876;SDS011;21086;44.780;17.194;2022-12-20T03:20:09;33.58;;;15.63;;
34876;SDS011;21086;44.780;17.194;2022-12-20T03:22:37;29.63;;;16.70;;
34876;SDS011;21086;44.780;17.194;2022-12-20T03:25:04;30.98;;;15.02;;
34876;SDS011;21086;44.780;17.194;2022-12-20T03:27:31;29.52;;;13.68;;
34876;SDS011;21086;44.780;17.194;2022-12-20T03:29:59;32.50;;;15.05;;
34876;SDS011;21086;44.780;17.194;2022-12-20T03:32:26;24.52;;;12.98;;
34876;SDS011;21086;44.780;17.194;2022-12-20T03:34:52;29.38;;;14.93;;
34876;SDS011;21086;44.780;17.194;2022-12-20T03:37:19;23.67;;;13.32;;
34876;SDS011;21086;44.780;17.194;2022-12-20T03:39:46;27.17;;;13.05;;
34876;SDS011;21086;44.780;17.194;2022-12-20T03:42:13;25.90;;;13.38;;
34876;SDS011;21086;44.780;17.194;2022-12-20T03:44:40;24.95;;;12.68;;
34876;SDS011;21086;44.780;17.194;2022-12-20T03:47:07;25.90;;;13.55;;
34876;SDS011;21086;44.780;17.194;2022-12-20T03:49:34;25.33;;;13.38;;
34876;SDS011;21086;44.780;17.194;2022-12-20T03:52:01;21.65;;;12.50;;
34876;SDS011;21086;44.780;17.194;2022-12-20T03:54:28;24.50;;;12.25;;
34876;SDS011;21086;44.780;17.194;2022-12-20T03:56:55;22.23;;;12.45;;
34876;SDS011;21086;44.780;17.194;2022-12-20T03:59:22;25.38;;;13.65;;
34876;SDS011;21086;44.780;17.194;2022-12-20T04:01:49;26.63;;;12.93;;
34876;SDS011;21086;44.780;17.194;2022-12-20T04:04:16;24.88;;;13.13;;
34876;SDS011;21086;44.780;17.194;2022-12-20T04:06:43;24.38;;;13.05;;
34876;SDS011;21086;44.780;17.194;2022-12-20T04:09:10;22.73;;;13.43;;
34876;SDS011;21086;44.780;17.194;2022-12-20T04:11:37;25.13;;;12.32;;
34876;SDS011;21086;44.780;17.194;2022-12-20T04:14:05;28.05;;;14.38;;
34876;SDS011;21086;44.780;17.194;2022-12-20T04:16:32;23.70;;;12.55;;
34876;SDS011;21086;44.780;17.194;2022-12-20T04:18:59;25.13;;;13.35;;
34876;SDS011;21086;44.780;17.194;2022-12-20T04:21:27;21.75;;;11.82;;
34876;SDS011;21086;44.780;17.194;2022-12-20T04:23:56;21.77;;;12.50;;
34876;SDS011;21086;44.780;17.194;2022-12-20T04:26:24;25.85;;;12.07;;
34876;SDS011;21086;44.780;17.194;2022-12-20T04:28:51;26.42;;;12.23;;
34876;SDS011;21086;44.780;17.194;2022-12-20T04:31:18;21.15;;;11.60;;
34876;SDS011;21086;44.780;17.194;2022-12-20T04:33:49;22.33;;;11.98;;
34876;SDS011;21086;44.780;17.194;2022-12-20T04:36:16;21.38;;;12.20;;
34876;SDS011;21086;44.780;17.194;2022-12-20T04:38:43;23.35;;;12.88;;
34876;SDS011;21086;44.780;17.194;2022-12-20T04:41:10;22.95;;;11.43;;
34876;SDS011;21086;44.780;17.194;2022-12-20T04:43:51;23.30;;;11.35;;
34876;SDS011;21086;44.780;17.194;2022-12-20T04:46:20;18.38;;;9.82;;
34876;SDS011;21086;44.780;17.194;2022-12-20T04:48:48;18.90;;;11.65;;
34876;SDS011;21086;44.780;17.194;2022-12-20T04:51:25;21.95;;;11.60;;
34876;SDS011;21086;44.780;17.194;2022-12-20T04:53:52;20.13;;;10.85;;
34876;SDS011;21086;44.780;17.194;2022-12-20T04:58:55;21.45;;;11.38;;
34876;SDS011;21086;44.780;17.194;2022-12-20T05:01:23;23.45;;;12.20;;
34876;SDS011;21086;44.780;17.194;2022-12-20T05:03:51;22.35;;;11.88;;
34876;SDS011;21086;44.780;17.194;2022-12-20T05:06:18;20.33;;;11.05;;
34876;SDS011;21086;44.780;17.194;2022-12-20T05:08:45;22.33;;;11.20;;
34876;SDS011;21086;44.780;17.194;2022-12-20T05:11:13;19.17;;;10.80;;
34876;SDS011;21086;44.780;17.194;2022-12-20T05:13:40;20.52;;;9.93;;
34876;SDS011;21086;44.780;17.194;2022-12-20T05:16:07;21.95;;;11.57;;
34876;SDS011;21086;44.780;17.194;2022-12-20T05:18:34;27.02;;;12.27;;
34876;SDS011;21086;44.780;17.194;2022-12-20T05:21:02;21.35;;;11.57;;
34876;SDS011;21086;44.780;17.194;2022-12-20T05:23:48;23.27;;;12.35;;
34876;SDS011;21086;44.780;17.194;2022-12-20T05:26:34;21.83;;;12.43;;
34876;SDS011;21086;44.780;17.194;2022-12-20T05:29:03;25.85;;;12.40;;
34876;SDS011;21086;44.780;17.194;2022-12-20T05:31:31;19.80;;;11.85;;
34876;SDS011;21086;44.780;17.194;2022-12-20T05:33:59;24.13;;;11.70;;
34876;SDS011;21086;44.780;17.194;2022-12-20T05:36:26;21.50;;;11.48;;
34876;SDS011;21086;44.780;17.194;2022-12-20T05:38:53;21.00;;;11.43;;
34876;SDS011;21086;44.780;17.194;2022-12-20T05:41:29;20.50;;;11.27;;
34876;SDS011;21086;44.780;17.194;2022-12-20T05:43:56;21.48;;;12.15;;
34876;SDS011;21086;44.780;17.194;2022-12-20T05:46:23;28.40;;;15.43;;
34876;SDS011;21086;44.780;17.194;2022-12-20T05:48:51;28.10;;;14.93;;
34876;SDS011;21086;44.780;17.194;2022-12-20T05:51:18;30.33;;;16.10;;
34876;SDS011;21086;44.780;17.194;2022-12-20T05:53:45;28.65;;;14.93;;
34876;SDS011;21086;44.780;17.194;2022-12-20T05:56:12;34.03;;;16.88;;
34876;SDS011;21086;44.780;17.194;2022-12-20T05:58:39;23.77;;;13.60;;
34876;SDS011;21086;44.780;17.194;2022-12-20T06:01:06;24.75;;;12.05;;
34876;SDS011;21086;44.780;17.194;2022-12-20T06:03:36;26.73;;;14.45;;
34876;SDS011;21086;44.780;17.194;2022-12-20T06:06:04;23.85;;;12.65;;
34876;SDS011;21086;44.780;17.194;2022-12-20T06:08:40;28.83;;;16.40;;
34876;SDS011;21086;44.780;17.194;2022-12-20T06:11:07;27.35;;;13.88;;
34876;SDS011;21086;44.780;17.194;2022-12-20T06:13:34;27.88;;;14.95;;
34876;SDS011;21086;44.780;17.194;2022-12-20T06:16:01;32.90;;;17.23;;
34876;SDS011;21086;44.780;17.194;2022-12-20T06:18:28;30.58;;;16.75;;
34876;SDS011;21086;44.780;17.194;2022-12-20T06:20:55;30.80;;;15.50;;
34876;SDS011;21086;44.780;17.194;2022-12-20T06:23:21;26.67;;;15.00;;
34876;SDS011;21086;44.780;17.194;2022-12-20T06:25:48;24.38;;;14.88;;
34876;SDS011;21086;44.780;17.194;2022-12-20T06:28:15;29.73;;;16.15;;
34876;SDS011;21086;44.780;17.194;2022-12-20T06:30:51;29.48;;;15.40;;
34876;SDS011;21086;44.780;17.194;2022-12-20T06:33:19;24.90;;;13.35;;
34876;SDS011;21086;44.780;17.194;2022-12-20T06:35:48;28.52;;;15.73;;
34876;SDS011;21086;44.780;17.194;2022-12-20T06:38:15;29.50;;;16.15;;
34876;SDS011;21086;44.780;17.194;2022-12-20T06:40:42;27.20;;;15.82;;
34876;SDS011;21086;44.780;17.194;2022-12-20T06:43:10;31.05;;;17.00;;
34876;SDS011;21086;44.780;17.194;2022-12-20T06:45:37;32.95;;;16.30;;
34876;SDS011;21086;44.780;17.194;2022-12-20T06:48:07;32.05;;;16.20;;
34876;SDS011;21086;44.780;17.194;2022-12-20T06:50:34;30.23;;;15.52;;
34876;SDS011;21086;44.780;17.194;2022-12-20T06:53:02;28.17;;;14.40;;
34876;SDS011;21086;44.780;17.194;2022-12-20T06:55:29;29.20;;;15.13;;
34876;SDS011;21086;44.780;17.194;2022-12-20T06:57:56;24.70;;;12.93;;
34876;SDS011;21086;44.780;17.194;2022-12-20T07:00:23;33.47;;;18.00;;
34876;SDS011;21086;44.780;17.194;2022-12-20T07:02:50;27.20;;;14.57;;
34876;SDS011;21086;44.780;17.194;2022-12-20T07:05:18;34.10;;;17.13;;
34876;SDS011;21086;44.780;17.194;2022-12-20T07:07:44;27.05;;;15.65;;
34876;SDS011;21086;44.780;17.194;2022-12-20T07:10:11;27.23;;;15.88;;
34876;SDS011;21086;44.780;17.194;2022-12-20T07:12:39;29.58;;;16.50;;
34876;SDS011;21086;44.780;17.194;2022-12-20T07:15:13;28.08;;;16.33;;
34876;SDS011;21086;44.780;17.194;2022-12-20T07:17:40;27.73;;;14.57;;
34876;SDS011;21086;44.780;17.194;2022-12-20T07:20:07;28.10;;;14.90;;
34876;SDS011;21086;44.780;17.194;2022-12-20T07:22:39;29.52;;;16.73;;
34876;SDS011;21086;44.780;17.194;2022-12-20T07:25:06;31.13;;;16.67;;
34876;SDS011;21086;44.780;17.194;2022-12-20T07:27:33;26.45;;;14.77;;
34876;SDS011;21086;44.780;17.194;2022-12-20T07:30:00;24.38;;;15.13;;
34876;SDS011;21086;44.780;17.194;2022-12-20T07:32:27;27.13;;;14.20;;
34876;SDS011;21086;44.780;17.194;2022-12-20T07:34:54;29.23;;;13.82;;
34876;SDS011;21086;44.780;17.194;2022-12-20T07:37:21;25.35;;;13.15;;
34876;SDS011;21086;44.780;17.194;2022-12-20T07:39:48;25.65;;;13.55;;
34876;SDS011;21086;44.780;17.194;2022-12-20T07:42:15;31.40;;;14.63;;
34876;SDS011;21086;44.780;17.194;2022-12-20T07:44:43;29.70;;;14.55;;
34876;SDS011;21086;44.780;17.194;2022-12-20T07:47:09;24.33;;;14.68;;
34876;SDS011;21086;44.780;17.194;2022-12-20T07:49:36;29.50;;;14.65;;
34876;SDS011;21086;44.780;17.194;2022-12-20T07:52:03;32.42;;;15.23;;
34876;SDS011;21086;44.780;17.194;2022-12-20T07:54:33;31.48;;;15.57;;
34876;SDS011;21086;44.780;17.194;2022-12-20T07:57:09;29.10;;;15.55;;
34876;SDS011;21086;44.780;17.194;2022-12-20T07:59:41;24.83;;;14.70;;
34876;SDS011;21086;44.780;17.194;2022-12-20T08:02:19;27.80;;;14.55;;
34876;SDS011;21086;44.780;17.194;2022-12-20T08:04:52;25.65;;;14.43;;
34876;SDS011;21086;44.780;17.194;2022-12-20T08:07:21;28.13;;;14.77;;
34876;SDS011;21086;44.780;17.194;2022-12-20T08:09:48;27.17;;;14.13;;
34876;SDS011;21086;44.780;17.194;2022-12-20T08:12:18;29.05;;;15.75;;
34876;SDS011;21086;44.780;17.194;2022-12-20T08:14:47;28.48;;;15.23;;
34876;SDS011;21086;44.780;17.194;2022-12-20T08:17:17;33.92;;;16.85;;
34876;SDS011;21086;44.780;17.194;2022-12-20T08:19:44;29.63;;;18.45;;
34876;SDS011;21086;44.780;17.194;2022-12-20T08:22:11;26.48;;;15.10;;
34876;SDS011;21086;44.780;17.194;2022-12-20T08:24:38;28.15;;;15.70;;
34876;SDS011;21086;44.780;17.194;2022-12-20T08:27:05;32.45;;;16.02;;
34876;SDS011;21086;44.780;17.194;2022-12-20T08:29:32;28.58;;;16.70;;
34876;SDS011;21086;44.780;17.194;2022-12-20T08:31:59;30.02;;;15.07;;
34876;SDS011;21086;44.780;17.194;2022-12-20T08:34:26;30.02;;;16.20;;
34876;SDS011;21086;44.780;17.194;2022-12-20T08:36:53;29.88;;;16.38;;
34876;SDS011;21086;44.780;17.194;2022-12-20T08:39:20;32.67;;;17.02;;
34876;SDS011;21086;44.780;17.194;2022-12-20T08:41:47;35.67;;;20.58;;
34876;SDS011;21086;44.780;17.194;2022-12-20T08:44:13;35.45;;;21.13;;
34876;SDS011;21086;44.780;17.194;2022-12-20T08:46:40;42.15;;;20.40;;
34876;SDS011;21086;44.780;17.194;2022-12-20T08:49:07;34.67;;;20.52;;
34876;SDS011;21086;44.780;17.194;2022-12-20T08:51:34;35.72;;;20.75;;
34876;SDS011;21086;44.780;17.194;2022-12-20T08:54:01;34.67;;;20.80;;
34876;SDS011;21086;44.780;17.194;2022-12-20T08:56:28;37.30;;;22.25;;
34876;SDS011;21086;44.780;17.194;2022-12-20T08:58:55;43.20;;;24.27;;
34876;SDS011;21086;44.780;17.194;2022-12-20T09:01:23;39.08;;;22.90;;
34876;SDS011;21086;44.780;17.194;2022-12-20T09:03:52;39.40;;;23.30;;
34876;SDS011;21086;44.780;17.194;2022-12-20T09:06:20;38.88;;;22.85;;
34876;SDS011;21086;44.780;17.194;2022-12-20T09:08:48;39.33;;;22.85;;
34876;SDS011;21086;44.780;17.194;2022-12-20T09:11:20;57.25;;;29.05;;
34876;SDS011;21086;44.780;17.194;2022-12-20T09:13:50;37.97;;;21.42;;
34876;SDS011;21086;44.780;17.194;2022-12-20T09:16:21;36.20;;;19.27;;
34876;SDS011;21086;44.780;17.194;2022-12-20T09:18:49;39.05;;;20.10;;
34876;SDS011;21086;44.780;17.194;2022-12-20T09:21:18;34.92;;;21.30;;
34876;SDS011;21086;44.780;17.194;2022-12-20T09:23:45;46.38;;;24.52;;
34876;SDS011;21086;44.780;17.194;2022-12-20T09:26:14;37.72;;;21.30;;
34876;SDS011;21086;44.780;17.194;2022-12-20T09:28:42;38.70;;;21.88;;
34876;SDS011;21086;44.780;17.194;2022-12-20T09:31:10;35.75;;;20.38;;
34876;SDS011;21086;44.780;17.194;2022-12-20T09:33:39;32.75;;;19.08;;
34876;SDS011;21086;44.780;17.194;2022-12-20T09:36:09;33.30;;;20.13;;
34876;SDS011;21086;44.780;17.194;2022-12-20T09:38:38;34.30;;;19.23;;
34876;SDS011;21086;44.780;17.194;2022-12-20T09:41:06;36.45;;;20.77;;
34876;SDS011;21086;44.780;17.194;2022-12-20T09:43:47;37.17;;;19.55;;
34876;SDS011;21086;44.780;17.194;2022-12-20T09:46:15;39.13;;;20.25;;
34876;SDS011;21086;44.780;17.194;2022-12-20T09:48:43;32.45;;;19.27;;
34876;SDS011;21086;44.780;17.194;2022-12-20T09:55:18;43.08;;;21.23;;
34876;SDS011;21086;44.780;17.194;2022-12-20T10:00:20;35.55;;;19.92;;
34876;SDS011;21086;44.780;17.194;2022-12-20T10:02:47;33.28;;;18.55;;
34876;SDS011;21086;44.780;17.194;2022-12-20T10:05:37;33.92;;;19.55;;
34876;SDS011;21086;44.780;17.194;2022-12-20T10:08:30;36.50;;;20.02;;
34876;SDS011;21086;44.780;17.194;2022-12-20T10:11:10;48.25;;;23.60;;
34876;SDS011;21086;44.780;17.194;2022-12-20T10:18:55;35.47;;;20.65;;
34876;SDS011;21086;44.780;17.194;2022-12-20T10:21:39;37.38;;;22.13;;
34876;SDS011;21086;44.780;17.194;2022-12-20T10:24:10;34.78;;;20.48;;
34876;SDS011;21086;44.780;17.194;2022-12-20T10:26:52;34.65;;;19.23;;
34876;SDS011;21086;44.780;17.194;2022-12-20T10:29:20;34.42;;;20.15;;
34876;SDS011;21086;44.780;17.194;2022-12-20T10:31:53;38.10;;;22.42;;
34876;SDS011;21086;44.780;17.194;2022-12-20T10:34:26;35.33;;;21.58;;
34876;SDS011;21086;44.780;17.194;2022-12-20T10:37:11;38.17;;;21.15;;
34876;SDS011;21086;44.780;17.194;2022-12-20T10:39:42;40.40;;;22.67;;
34876;SDS011;21086;44.780;17.194;2022-12-20T10:44:54;36.65;;;20.75;;
34876;SDS011;21086;44.780;17.194;2022-12-20T10:47:44;37.17;;;18.02;;
34876;SDS011;21086;44.780;17.194;2022-12-20T10:50:15;30.20;;;16.05;;
34876;SDS011;21086;44.780;17.194;2022-12-20T10:52:45;29.55;;;17.17;;
34876;SDS011;21086;44.780;17.194;2022-12-20T10:55:38;30.85;;;17.73;;
34876;SDS011;21086;44.780;17.194;2022-12-20T10:58:15;26.85;;;15.13;;
34876;SDS011;21086;44.780;17.194;2022-12-20T11:00:47;37.50;;;22.92;;
34876;SDS011;21086;44.780;17.194;2022-12-20T11:03:19;35.63;;;19.83;;
34876;SDS011;21086;44.780;17.194;2022-12-20T11:05:58;33.92;;;17.88;;
34876;SDS011;21086;44.780;17.194;2022-12-20T11:08:28;33.83;;;19.15;;
34876;SDS011;21086;44.780;17.194;2022-12-20T11:13:38;31.80;;;20.00;;
34876;SDS011;21086;44.780;17.194;2022-12-20T11:16:20;31.00;;;18.60;;
34876;SDS011;21086;44.780;17.194;2022-12-20T11:22:04;45.30;;;21.27;;
34876;SDS011;21086;44.780;17.194;2022-12-20T11:30:19;32.40;;;18.98;;
34876;SDS011;21086;44.780;17.194;2022-12-20T11:32:54;29.85;;;17.88;;
34876;SDS011;21086;44.780;17.194;2022-12-20T11:35:51;36.63;;;21.35;;
34876;SDS011;21086;44.780;17.194;2022-12-20T11:38:29;39.20;;;21.70;;
34876;SDS011;21086;44.780;17.194;2022-12-20T12:01:06;52.72;;;26.92;;
34876;SDS011;21086;44.780;17.194;2022-12-20T12:03:40;43.47;;;24.40;;
34876;SDS011;21086;44.780;17.194;2022-12-20T12:06:21;44.35;;;24.33;;
34876;SDS011;21086;44.780;17.194;2022-12-20T12:08:52;47.67;;;24.83;;
34876;SDS011;21086;44.780;17.194;2022-12-20T12:11:24;43.35;;;24.85;;
34876;SDS011;21086;44.780;17.194;2022-12-20T12:14:19;41.58;;;25.75;;
34876;SDS011;21086;44.780;17.194;2022-12-20T12:16:56;41.10;;;24.10;;
34876;SDS011;21086;44.780;17.194;2022-12-20T12:19:28;46.30;;;25.67;;
34876;SDS011;21086;44.780;17.194;2022-12-20T12:22:00;55.83;;;28.50;;
34876;SDS011;21086;44.780;17.194;2022-12-20T12:24:34;46.65;;;25.52;;
34876;SDS011;21086;44.780;17.194;2022-12-20T12:27:20;47.72;;;24.75;;
34876;SDS011;21086;44.780;17.194;2022-12-20T12:29:50;49.08;;;24.80;;
34876;SDS011;21086;44.780;17.194;2022-12-20T12:32:25;53.30;;;28.05;;
34876;SDS011;21086;44.780;17.194;2022-12-20T12:46:12;47.67;;;27.58;;
34876;SDS011;21086;44.780;17.194;2022-12-20T12:48:44;56.35;;;30.02;;
34876;SDS011;21086;44.780;17.194;2022-12-20T12:51:31;64.57;;;33.33;;
34876;SDS011;21086;44.780;17.194;2022-12-20T12:56:44;48.42;;;27.08;;
34876;SDS011;21086;44.780;17.194;2022-12-20T13:04:52;47.97;;;25.65;;
34876;SDS011;21086;44.780;17.194;2022-12-20T13:09:59;49.45;;;26.85;;
34876;SDS011;21086;44.780;17.194;2022-12-20T13:17:48;45.05;;;23.95;;
34876;SDS011;21086;44.780;17.194;2022-12-20T13:20:28;39.15;;;21.92;;
34876;SDS011;21086;44.780;17.194;2022-12-20T13:25:37;41.67;;;22.05;;
34876;SDS011;21086;44.780;17.194;2022-12-20T13:30:45;56.15;;;29.83;;
34876;SDS011;21086;44.780;17.194;2022-12-20T13:33:21;68.50;;;36.05;;
34876;SDS011;21086;44.780;17.194;2022-12-20T13:49:31;59.15;;;29.65;;
34876;SDS011;21086;44.780;17.194;2022-12-20T13:54:40;60.67;;;33.35;;
34876;SDS011;21086;44.780;17.194;2022-12-20T13:57:14;52.95;;;28.23;;
34876;SDS011;21086;44.780;17.194;2022-12-20T13:59:50;57.63;;;33.53;;
34876;SDS011;21086;44.780;17.194;2022-12-20T14:02:31;47.13;;;28.85;;
34876;SDS011;21086;44.780;17.194;2022-12-20T14:05:06;44.90;;;24.80;;
34876;SDS011;21086;44.780;17.194;2022-12-20T14:07:40;51.38;;;29.63;;
34876;SDS011;21086;44.780;17.194;2022-12-20T14:10:15;56.42;;;30.27;;
34876;SDS011;21086;44.780;17.194;2022-12-20T14:12:45;52.13;;;29.50;;
34876;SDS011;21086;44.780;17.194;2022-12-20T14:15:20;52.13;;;27.40;;
34876;SDS011;21086;44.780;17.194;2022-12-20T14:17:47;47.63;;;27.83;;
34876;SDS011;21086;44.780;17.194;2022-12-20T14:20:15;40.17;;;23.35;;
34876;SDS011;21086;44.780;17.194;2022-12-20T14:25:30;55.03;;;27.80;;
34876;SDS011;21086;44.780;17.194;2022-12-20T14:27:58;51.20;;;26.52;;
34876;SDS011;21086;44.780;17.194;2022-12-20T14:30:26;50.97;;;24.40;;
34876;SDS011;21086;44.780;17.194;2022-12-20T14:32:54;47.10;;;26.73;;
34876;SDS011;21086;44.780;17.194;2022-12-20T14:35:22;43.88;;;23.08;;
34876;SDS011;21086;44.780;17.194;2022-12-20T14:37:54;44.40;;;24.55;;
34876;SDS011;21086;44.780;17.194;2022-12-20T14:40:26;60.80;;;28.92;;
34876;SDS011;21086;44.780;17.194;2022-12-20T14:42:53;50.15;;;28.27;;
34876;SDS011;21086;44.780;17.194;2022-12-20T14:45:22;41.50;;;24.65;;
34876;SDS011;21086;44.780;17.194;2022-12-20T14:47:56;51.28;;;28.45;;
34876;SDS011;21086;44.780;17.194;2022-12-20T14:50:25;45.05;;;24.17;;
34876;SDS011;21086;44.780;17.194;2022-12-20T14:52:53;45.67;;;26.23;;
34876;SDS011;21086;44.780;17.194;2022-12-20T14:55:22;47.50;;;26.25;;
34876;SDS011;21086;44.780;17.194;2022-12-20T14:57:53;52.50;;;29.65;;
34876;SDS011;21086;44.780;17.194;2022-12-20T15:02:51;65.88;;;34.88;;
34876;SDS011;21086;44.780;17.194;2022-12-20T15:13:45;63.05;;;36.05;;
34876;SDS011;21086;44.780;17.194;2022-12-20T15:16:17;103.57;;;51.67;;
34876;SDS011;21086;44.780;17.194;2022-12-20T15:18:45;90.60;;;44.28;;
34876;SDS011;21086;44.780;17.194;2022-12-20T15:21:17;86.75;;;44.42;;
34876;SDS011;21086;44.780;17.194;2022-12-20T15:24:09;72.97;;;36.25;;
34876;SDS011;21086;44.780;17.194;2022-12-20T15:26:42;74.93;;;36.97;;
34876;SDS011;21086;44.780;17.194;2022-12-20T15:29:30;64.55;;;33.42;;
34876;SDS011;21086;44.780;17.194;2022-12-20T15:32:03;59.75;;;33.33;;
34876;SDS011;21086;44.780;17.194;2022-12-20T15:34:35;69.05;;;37.15;;
34876;SDS011;21086;44.780;17.194;2022-12-20T15:37:04;57.88;;;31.63;;
34876;SDS011;21086;44.780;17.194;2022-12-20T15:39:32;62.92;;;32.53;;
34876;SDS011;21086;44.780;17.194;2022-12-20T15:42:00;71.10;;;38.50;;
34876;SDS011;21086;44.780;17.194;2022-12-20T15:44:29;66.50;;;36.15;;
34876;SDS011;21086;44.780;17.194;2022-12-20T15:46:57;69.47;;;39.35;;
34876;SDS011;21086;44.780;17.194;2022-12-20T15:49:26;73.20;;;41.45;;
34876;SDS011;21086;44.780;17.194;2022-12-20T15:51:56;77.00;;;42.42;;
34876;SDS011;21086;44.780;17.194;2022-12-20T15:54:24;76.40;;;40.33;;
34876;SDS011;21086;44.780;17.194;2022-12-20T15:56:57;71.15;;;36.60;;
34876;SDS011;21086;44.780;17.194;2022-12-20T15:59:25;72.45;;;36.50;;
34876;SDS011;21086;44.780;17.194;2022-12-20T16:02:19;74.68;;;39.45;;
34876;SDS011;21086;44.780;17.194;2022-12-20T16:04:52;54.22;;;30.17;;
34876;SDS011;21086;44.780;17.194;2022-12-20T16:07:20;77.95;;;38.55;;
34876;SDS011;21086;44.780;17.194;2022-12-20T16:09:49;81.10;;;41.17;;
34876;SDS011;21086;44.780;17.194;2022-12-20T16:14:48;78.85;;;42.13;;
34876;SDS011;21086;44.780;17.194;2022-12-20T16:17:16;76.63;;;39.53;;
34876;SDS011;21086;44.780;17.194;2022-12-20T16:19:43;72.55;;;37.50;;
34876;SDS011;21086;44.780;17.194;2022-12-20T16:22:15;78.10;;;40.38;;
34876;SDS011;21086;44.780;17.194;2022-12-20T16:24:44;73.57;;;36.67;;
34876;SDS011;21086;44.780;17.194;2022-12-20T16:27:11;73.47;;;39.60;;
34876;SDS011;21086;44.780;17.194;2022-12-20T16:29:38;73.40;;;35.38;;
34876;SDS011;21086;44.780;17.194;2022-12-20T16:32:14;69.78;;;36.45;;
34876;SDS011;21086;44.780;17.194;2022-12-20T16:34:43;84.60;;;44.30;;
34876;SDS011;21086;44.780;17.194;2022-12-20T16:37:10;69.25;;;31.98;;
34876;SDS011;21086;44.780;17.194;2022-12-20T16:39:37;54.17;;;27.08;;